TVS8G LKPR-EVRA
Flight info
| Callsign | TVS8G |
|---|---|
| Flight time | 0h 52m |
| Altitude | 35000 |
| Route | ARTUP DCT LAGAR N871 SUWGI M857 BOKSU DCT GUNTA |
| Aircraft | B738/M-SDE2E3FGHIRWXY/LB1 |
Departure
| Time | 2026-05-04 08:08 |
|---|---|
| Airport | Václav Havel Airport Prague (LKPR) |
Arrival
| Time | 2026-05-04 09:01 |
|---|---|
| Airport | Riga International Airport (EVRA) |
| Time | Latitude | Longitude | Altitude | Speed | Heading |
|---|---|---|---|---|---|
| 2026-05-04 07:36 | 50.10461 | 14.26533 | 1169 ft | 0 kts | 34° |
| 2026-05-04 07:55 | 50.10443 | 14.26516 | 1172 ft | 4 kts | 21° |
| 2026-05-04 07:55 | 50.10420 | 14.26511 | 1168 ft | 4 kts | 325° |
| 2026-05-04 07:56 | 50.10414 | 14.26520 | 1170 ft | 0 kts | 304° |
| 2026-05-04 08:02 | 50.10513 | 14.26295 | 1171 ft | 17 kts | 304° |
| 2026-05-04 08:02 | 50.10566 | 14.26128 | 1173 ft | 16 kts | 304° |
| 2026-05-04 08:02 | 50.10559 | 14.26002 | 1172 ft | 12 kts | 224° |
| 2026-05-04 08:03 | 50.10486 | 14.26004 | 1173 ft | 12 kts | 131° |
| 2026-05-04 08:03 | 50.10433 | 14.26117 | 1172 ft | 15 kts | 126° |
| 2026-05-04 08:03 | 50.10361 | 14.26266 | 1175 ft | 19 kts | 127° |
| 2026-05-04 08:03 | 50.10278 | 14.26436 | 1176 ft | 20 kts | 126° |
| 2026-05-04 08:04 | 50.10196 | 14.26603 | 1175 ft | 20 kts | 126° |
| 2026-05-04 08:04 | 50.10108 | 14.26789 | 1183 ft | 22 kts | 126° |
| 2026-05-04 08:04 | 50.10017 | 14.26974 | 1194 ft | 21 kts | 127° |
| 2026-05-04 08:04 | 50.09930 | 14.27154 | 1199 ft | 21 kts | 126° |
| 2026-05-04 08:05 | 50.09839 | 14.27331 | 1202 ft | 22 kts | 134° |
| 2026-05-04 08:05 | 50.09731 | 14.27500 | 1205 ft | 23 kts | 135° |
| 2026-05-04 08:05 | 50.09618 | 14.27674 | 1209 ft | 23 kts | 134° |
| 2026-05-04 08:05 | 50.09506 | 14.27845 | 1213 ft | 22 kts | 134° |
| 2026-05-04 08:06 | 50.09395 | 14.28014 | 1214 ft | 23 kts | 134° |
| 2026-05-04 08:06 | 50.09281 | 14.28190 | 1213 ft | 23 kts | 135° |
| 2026-05-04 08:06 | 50.09174 | 14.28280 | 1210 ft | 14 kts | 189° |
| 2026-05-04 08:06 | 50.09105 | 14.28198 | 1210 ft | 13 kts | 239° |
| 2026-05-04 08:08 | 50.12852 | 14.20464 | 4008 ft | 221 kts | 306° |
| 2026-05-04 08:08 | 50.13839 | 14.18388 | 4333 ft | 256 kts | 305° |
| 2026-05-04 08:10 | 50.25904 | 14.12471 | 10895 ft | 359 kts | 54° |
| 2026-05-04 08:11 | 50.27241 | 14.15917 | 11134 ft | 383 kts | 63° |
| 2026-05-04 08:11 | 50.29600 | 14.23639 | 12491 ft | 399 kts | 66° |
| 2026-05-04 08:11 | 50.30806 | 14.27577 | 13360 ft | 403 kts | 65° |
| 2026-05-04 08:12 | 50.32058 | 14.31536 | 14137 ft | 408 kts | 64° |
| 2026-05-04 08:12 | 50.33352 | 14.35525 | 14859 ft | 413 kts | 64° |
| 2026-05-04 08:12 | 50.34672 | 14.39538 | 15608 ft | 416 kts | 64° |
| 2026-05-04 08:12 | 50.36013 | 14.43594 | 16321 ft | 421 kts | 64° |
| 2026-05-04 08:13 | 50.37368 | 14.47693 | 17029 ft | 425 kts | 64° |
| 2026-05-04 08:13 | 50.38730 | 14.51820 | 17752 ft | 428 kts | 64° |
| 2026-05-04 08:13 | 50.40086 | 14.55940 | 18394 ft | 433 kts | 64° |
| 2026-05-04 08:13 | 50.41482 | 14.60141 | 19006 ft | 437 kts | 61° |
| 2026-05-04 08:14 | 50.43213 | 14.64089 | 19584 ft | 442 kts | 50° |
| 2026-05-04 08:14 | 50.45383 | 14.67511 | 20201 ft | 444 kts | 40° |
| 2026-05-04 08:14 | 50.47900 | 14.70337 | 20829 ft | 446 kts | 31° |
| 2026-05-04 08:16 | 50.66618 | 14.89121 | 24447 ft | 468 kts | 43° |
| 2026-05-04 08:16 | 50.68721 | 14.92982 | 24854 ft | 472 kts | 55° |
| 2026-05-04 08:16 | 50.70334 | 14.97490 | 25263 ft | 474 kts | 67° |
| 2026-05-04 08:17 | 50.71678 | 15.03111 | 25725 ft | 477 kts | 70° |
| 2026-05-04 08:17 | 50.72795 | 15.08059 | 26060 ft | 480 kts | 71° |
| 2026-05-04 08:17 | 50.74770 | 15.16696 | 26684 ft | 485 kts | 70° |
| 2026-05-04 08:17 | 50.77138 | 15.26726 | 27420 ft | 490 kts | 70° |
| 2026-05-04 08:19 | 50.94751 | 15.96535 | 33435 ft | 485 kts | 68° |
| 2026-05-04 08:19 | 50.97248 | 16.06481 | 34132 ft | 485 kts | 68° |
| 2026-05-04 08:20 | 50.99734 | 16.16430 | 34869 ft | 482 kts | 68° |
| 2026-05-04 08:20 | 51.02215 | 16.26400 | 35074 ft | 491 kts | 68° |
| 2026-05-04 08:20 | 51.07185 | 16.46509 | 34992 ft | 489 kts | 68° |
| 2026-05-04 08:21 | 51.12033 | 16.66299 | 34999 ft | 474 kts | 69° |
| 2026-05-04 08:21 | 51.16803 | 16.85944 | 35008 ft | 477 kts | 69° |
| 2026-05-04 08:22 | 51.21588 | 17.05880 | 35007 ft | 483 kts | 69° |
| 2026-05-04 08:24 | 51.38048 | 17.76003 | 35004 ft | 470 kts | 69° |
| 2026-05-04 08:24 | 51.40311 | 17.85795 | 35017 ft | 469 kts | 70° |
| 2026-05-04 08:24 | 51.44852 | 18.05580 | 35018 ft | 478 kts | 70° |
| 2026-05-04 08:25 | 51.49439 | 18.25743 | 35005 ft | 482 kts | 70° |
| 2026-05-04 08:25 | 51.53935 | 18.45691 | 34986 ft | 472 kts | 70° |
| 2026-05-04 08:27 | 51.71531 | 19.25828 | 34982 ft | 477 kts | 70° |
| 2026-05-04 08:28 | 51.75787 | 19.45718 | 34990 ft | 469 kts | 71° |
| 2026-05-04 08:28 | 51.80166 | 19.65455 | 34986 ft | 467 kts | 62° |
| 2026-05-04 08:29 | 51.83818 | 19.74132 | 35006 ft | 468 kts | 51° |
| 2026-05-04 08:29 | 51.87828 | 19.82510 | 35001 ft | 475 kts | 51° |
| 2026-05-04 08:31 | 52.19069 | 20.50525 | 34992 ft | 476 kts | 52° |
| 2026-05-04 08:33 | 52.53462 | 20.98330 | 34995 ft | 461 kts | 34° |
| 2026-05-04 08:33 | 52.58699 | 21.04583 | 34992 ft | 467 kts | 34° |
| 2026-05-04 08:35 | 53.00626 | 21.55340 | 34956 ft | 461 kts | 34° |
| 2026-05-04 08:35 | 53.09232 | 21.65914 | 34963 ft | 465 kts | 34° |
| 2026-05-04 08:37 | 53.46157 | 22.11912 | 34950 ft | 466 kts | 35° |
| 2026-05-04 08:38 | 53.56544 | 22.25035 | 34952 ft | 467 kts | 35° |
| 2026-05-04 08:38 | 53.66987 | 22.38314 | 34939 ft | 477 kts | 36° |
| 2026-05-04 08:40 | 54.03470 | 22.85384 | 34935 ft | 466 kts | 36° |
| 2026-05-04 08:40 | 54.08904 | 22.91470 | 34912 ft | 468 kts | 21° |
| 2026-05-04 08:41 | 54.21112 | 22.99399 | 34913 ft | 477 kts | 19° |
| 2026-05-04 08:41 | 54.33526 | 23.07067 | 34893 ft | 468 kts | 8° |
| 2026-05-04 08:42 | 54.46224 | 23.10932 | 34895 ft | 461 kts | 7° |
| 2026-05-04 08:42 | 54.56231 | 23.14090 | 34902 ft | 464 kts | 7° |
| 2026-05-04 08:43 | 54.62651 | 23.16173 | 34900 ft | 473 kts | 7° |
| 2026-05-04 08:43 | 54.69076 | 23.18276 | 34884 ft | 472 kts | 7° |
| 2026-05-04 08:44 | 54.75548 | 23.20398 | 34885 ft | 472 kts | 7° |
| 2026-05-04 08:46 | 55.18549 | 23.34645 | 34876 ft | 471 kts | 7° |
| 2026-05-04 08:46 | 55.31428 | 23.38973 | 34870 ft | 471 kts | 7° |
| 2026-05-04 08:47 | 55.44325 | 23.43335 | 33588 ft | 471 kts | 7° |
| 2026-05-04 08:47 | 55.50742 | 23.45518 | 32160 ft | 468 kts | 7° |
| 2026-05-04 08:47 | 55.57121 | 23.47693 | 30776 ft | 467 kts | 7° |
| 2026-05-04 08:47 | 55.63502 | 23.49876 | 29254 ft | 466 kts | 7° |
| 2026-05-04 08:48 | 55.69876 | 23.52065 | 27574 ft | 463 kts | 7° |
| 2026-05-04 08:48 | 55.76221 | 23.54250 | 26127 ft | 467 kts | 7° |
| 2026-05-04 08:48 | 55.82680 | 23.56477 | 24991 ft | 478 kts | 7° |
| 2026-05-04 08:48 | 55.89116 | 23.58716 | 23796 ft | 464 kts | 7° |
| 2026-05-04 08:49 | 55.95358 | 23.60896 | 22512 ft | 450 kts | 7° |
| 2026-05-04 08:50 | 56.30086 | 23.73110 | 16055 ft | 403 kts | 7° |
| 2026-05-04 08:50 | 56.35329 | 23.75553 | 15665 ft | 385 kts | 26° |
| 2026-05-04 08:51 | 56.38832 | 23.82534 | 15066 ft | 378 kts | 65° |
| 2026-05-04 08:51 | 56.40824 | 23.91210 | 14296 ft | 372 kts | 69° |
| 2026-05-04 08:51 | 56.42764 | 23.99811 | 13506 ft | 368 kts | 69° |
| 2026-05-04 08:51 | 56.44722 | 24.08317 | 12665 ft | 364 kts | 68° |
| 2026-05-04 08:52 | 56.46657 | 24.16695 | 12055 ft | 354 kts | 68° |
| 2026-05-04 08:52 | 56.49389 | 24.23702 | 11752 ft | 334 kts | 42° |
| 2026-05-04 08:52 | 56.52578 | 24.29578 | 11467 ft | 320 kts | 44° |
| 2026-05-04 08:52 | 56.55610 | 24.35262 | 11189 ft | 305 kts | 37° |
| 2026-05-04 08:53 | 56.59381 | 24.37696 | 10776 ft | 284 kts | 3° |
| 2026-05-04 08:54 | 56.80826 | 24.20442 | 7529 ft | 244 kts | 319° |
| 2026-05-04 08:55 | 56.83687 | 24.17132 | 7052 ft | 242 kts | 319° |
| 2026-05-04 08:55 | 56.86849 | 24.15423 | 6465 ft | 255 kts | 2° |
| 2026-05-04 08:55 | 56.90368 | 24.16146 | 5725 ft | 254 kts | 0° |
| 2026-05-04 08:55 | 56.93886 | 24.16760 | 4981 ft | 253 kts | 360° |
| 2026-05-04 08:57 | 57.09015 | 24.02359 | 2488 ft | 150 kts | 242° |
| 2026-05-04 09:01 | 56.91830 | 23.97422 | 43 ft | 22 kts | 4° |
| 2026-05-04 09:01 | 56.92018 | 23.97443 | 43 ft | 30 kts | 3° |
| 2026-05-04 09:01 | 56.92218 | 23.97475 | 43 ft | 28 kts | 5° |
| 2026-05-04 09:01 | 56.92398 | 23.97513 | 43 ft | 26 kts | 9° |
| 2026-05-04 09:02 | 56.92538 | 23.97537 | 43 ft | 12 kts | 6° |
| 2026-05-04 09:02 | 56.92606 | 23.97592 | 43 ft | 12 kts | 77° |
| 2026-05-04 09:02 | 56.92606 | 23.97737 | 43 ft | 7 kts | 70° |
| 2026-05-04 09:02 | 56.92652 | 23.97759 | 43 ft | 7 kts | 4° |
| 2026-05-04 09:03 | 56.92686 | 23.97772 | 43 ft | 5 kts | 38° |
| 2026-05-04 09:03 | 56.92689 | 23.97805 | 43 ft | 3 kts | 93° |
| 2026-05-04 09:03 | 56.92687 | 23.97841 | 43 ft | 3 kts | 95° |
| 2026-05-04 09:03 | 56.92686 | 23.97861 | 43 ft | 0 kts | 95° |